Hunter River, Canada
Current Conditions -  °F | °C
As of 11:00 AM on Sunday 23 Nov 2014 (Local Time) from CYYG Reporting Station
Clear Clear  
Wind Chill: 30°   Ceiling: Unl
Heat Index: 37°   Visibility: 15mi
Dew Point: 30°   Wind: 12mph
Humidity: 75%   Direction: 250°WSW
Pressure: 29.95"   Gusts: NA
Location:  46.35°N, 63.35°W
Report Text: CYYG 231500Z 25010KT 15SM SKC 03/M01 A2995 RMK SLP143
Loading
Personal Weather Stations






























Interactive Weather Map New forecast layout! Learn more

10-Day Weather Forecast

Advertisements
Track Severe Weather on mobile